Cherry Valley

*Note: All times are displayed in the local standard time of the station location.
**Rain - Equipment is designed to accurately record liquid precipitation; under conditions when precipitation is not in liquid form, the data displayed may not properly reflect rainfall values.

Date Max Temp
(°C)
Min Temp
(°C)
Avg Temp
(°C)
Rain (mm) Avg RH (%)
Wed, Apr 17, 2019 15.1 -2.0 7.0 0.0 64.6
Tue, Apr 16, 2019 8.8 1.7 4.5 0.0 68.1
Mon, Apr 15, 2019 7.1 1.9 3.8 3.2 82.4
Sun, Apr 14, 2019 5.2 -1.0 2.7 23.8 85.8
Sat, Apr 13, 2019 12.8 2.8 8.8 0.0 64.7
Fri, Apr 12, 2019 16.7 3.0 9.6 1.6 70.3
Thu, Apr 11, 2019 5.0 -3.9 1.3 0.0 59.5
DateTime Avg Temp (°C) Rain (mm) RH (%)
Thu, Apr 18, 2019 06:00 9.4 0.0 71.4
Thu, Apr 18, 2019 05:00 9.3 0.2 76.3
Thu, Apr 18, 2019 04:00 8.6 0.6 73.6
Thu, Apr 18, 2019 03:00 9.0 0.0 52.7
Thu, Apr 18, 2019 02:00 9.9 0.0 42.5
Thu, Apr 18, 2019 01:00 9.6 0.0 42.2
Thu, Apr 18, 2019 00:00 9.4 0.0 40.4
Wed, Apr 17, 2019 23:00 9.0 0.0 43.3
Wed, Apr 17, 2019 22:00 7.5 0.0 48.5
Wed, Apr 17, 2019 21:00 7.2 0.0 46.0
Wed, Apr 17, 2019 20:00 9.5 0.0 35.2
Wed, Apr 17, 2019 19:00 12.3 0.0 25.9
Wed, Apr 17, 2019 18:00 14.2 0.0 23.6
Wed, Apr 17, 2019 17:00 14.8 0.0 22.0
Wed, Apr 17, 2019 16:00 14.3 0.0 28.1
Wed, Apr 17, 2019 15:00 13.7 0.0 29.6
Wed, Apr 17, 2019 14:00 13.1 0.0 40.5
Wed, Apr 17, 2019 13:00 11.6 0.0 54.1
Wed, Apr 17, 2019 12:00 10.5 0.0 61.8
Wed, Apr 17, 2019 11:00 8.5 0.0 74.3
Wed, Apr 17, 2019 10:00 6.8 0.0 83.3
Wed, Apr 17, 2019 09:00 3.9 0.0 99.5
Wed, Apr 17, 2019 08:00 0.0 0.0 99.9
Wed, Apr 17, 2019 07:00 -0.4 0.0 99.9
Wed, Apr 17, 2019 06:00 -0.2 0.0 99.9
Wed, Apr 17, 2019 05:00 -1.4 0.0 99.9
Wed, Apr 17, 2019 04:00 -0.6 0.0 99.9
Wed, Apr 17, 2019 03:00 -0.4 0.0 99.9
Wed, Apr 17, 2019 02:00 2.1 0.0 99.4
Wed, Apr 17, 2019 01:00 3.1 0.0 96.1
Wed, Apr 17, 2019 00:00 3.8 0.0 93.8
Tue, Apr 16, 2019 23:00 3.9 0.0 92.0
Tue, Apr 16, 2019 22:00 3.8 0.0 91.1
Tue, Apr 16, 2019 21:00 4.0 0.0 86.7
Tue, Apr 16, 2019 20:00 4.0 0.0 81.2
Tue, Apr 16, 2019 19:00 5.5 0.0 67.0
Tue, Apr 16, 2019 18:00 7.4 0.0 50.3
Tue, Apr 16, 2019 17:00 8.3 0.0 41.1
Tue, Apr 16, 2019 16:00 8.0 0.0 50.0
Tue, Apr 16, 2019 15:00 6.5 0.0 58.9
Tue, Apr 16, 2019 14:00 6.2 0.0 62.7
Tue, Apr 16, 2019 13:00 6.6 0.0 63.6
Tue, Apr 16, 2019 12:00 6.6 0.0 61.6
Tue, Apr 16, 2019 11:00 6.6 0.0 62.4
Tue, Apr 16, 2019 10:00 5.4 0.0 62.6
Tue, Apr 16, 2019 09:00 4.3 0.0 58.4
Tue, Apr 16, 2019 08:00 2.8 0.0 66.3
Tue, Apr 16, 2019 07:00 2.0 0.0 71.2


asterix Register now to access more data! asterix